sensor_id;sensor_type;location;lat;lon;timestamp;pressure;altitude;pressure_sealevel;temperature;humidity
16690;BME280;8458;52.220;9.884;2024-01-10T00:00:02;102600.88;;;-5.89;77.59
16690;BME280;8458;52.220;9.884;2024-01-10T00:02:29;102610.41;;;-5.96;78.08
16690;BME280;8458;52.220;9.884;2024-01-10T00:04:56;102605.16;;;-5.98;78.70
16690;BME280;8458;52.220;9.884;2024-01-10T00:07:22;102596.69;;;-5.93;78.21
16690;BME280;8458;52.220;9.884;2024-01-10T00:09:48;102598.28;;;-5.90;78.44
16690;BME280;8458;52.220;9.884;2024-01-10T00:12:16;102588.25;;;-5.88;78.20
16690;BME280;8458;52.220;9.884;2024-01-10T00:14:43;102581.00;;;-5.88;78.22
16690;BME280;8458;52.220;9.884;2024-01-10T00:17:09;102576.88;;;-5.94;78.08
16690;BME280;8458;52.220;9.884;2024-01-10T00:19:36;102569.56;;;-5.91;78.53
16690;BME280;8458;52.220;9.884;2024-01-10T00:22:02;102572.59;;;-5.96;78.11
16690;BME280;8458;52.220;9.884;2024-01-10T00:24:29;102561.91;;;-5.98;78.30
16690;BME280;8458;52.220;9.884;2024-01-10T00:26:55;102568.03;;;-5.96;78.75
16690;BME280;8458;52.220;9.884;2024-01-10T00:29:23;102569.25;;;-6.00;78.43
16690;BME280;8458;52.220;9.884;2024-01-10T00:31:49;102555.97;;;-6.03;79.05
16690;BME280;8458;52.220;9.884;2024-01-10T00:34:18;102572.94;;;-6.01;78.55
16690;BME280;8458;52.220;9.884;2024-01-10T00:36:44;102562.25;;;-6.02;78.87
16690;BME280;8458;52.220;9.884;2024-01-10T00:39:11;102577.34;;;-6.00;78.95
16690;BME280;8458;52.220;9.884;2024-01-10T00:41:37;102566.31;;;-5.97;78.52
16690;BME280;8458;52.220;9.884;2024-01-10T00:44:04;102560.50;;;-6.03;79.03
16690;BME280;8458;52.220;9.884;2024-01-10T00:46:32;102559.44;;;-6.01;79.20
16690;BME280;8458;52.220;9.884;2024-01-10T00:48:58;102560.06;;;-5.97;79.45
16690;BME280;8458;52.220;9.884;2024-01-10T00:51:25;102564.16;;;-5.91;79.09
16690;BME280;8458;52.220;9.884;2024-01-10T00:53:52;102563.94;;;-5.88;79.68
16690;BME280;8458;52.220;9.884;2024-01-10T00:56:18;102566.53;;;-5.87;79.30
16690;BME280;8458;52.220;9.884;2024-01-10T00:58:44;102565.84;;;-5.78;79.12
16690;BME280;8458;52.220;9.884;2024-01-10T01:01:11;102558.38;;;-5.74;78.98
16690;BME280;8458;52.220;9.884;2024-01-10T01:03:39;102562.59;;;-5.70;78.93
16690;BME280;8458;52.220;9.884;2024-01-10T01:06:05;102569.59;;;-5.67;78.59
16690;BME280;8458;52.220;9.884;2024-01-10T01:08:32;102569.25;;;-5.63;78.76
16690;BME280;8458;52.220;9.884;2024-01-10T01:10:58;102558.00;;;-5.56;78.39
16690;BME280;8458;52.220;9.884;2024-01-10T01:13:25;102563.41;;;-5.56;78.26
16690;BME280;8458;52.220;9.884;2024-01-10T01:15:51;102567.94;;;-5.57;77.68
16690;BME280;8458;52.220;9.884;2024-01-10T01:18:18;102570.03;;;-5.61;77.16
16690;BME280;8458;52.220;9.884;2024-01-10T01:20:46;102572.63;;;-5.59;77.26
16690;BME280;8458;52.220;9.884;2024-01-10T01:23:14;102567.31;;;-5.61;77.54
16690;BME280;8458;52.220;9.884;2024-01-10T01:25:40;102573.41;;;-5.70;76.91
16690;BME280;8458;52.220;9.884;2024-01-10T01:28:07;102573.84;;;-5.76;77.43
16690;BME280;8458;52.220;9.884;2024-01-10T01:30:34;102572.03;;;-5.88;78.02
16690;BME280;8458;52.220;9.884;2024-01-10T01:33:00;102567.38;;;-5.86;77.99
16690;BME280;8458;52.220;9.884;2024-01-10T01:35:29;102581.63;;;-5.84;78.42
16690;BME280;8458;52.220;9.884;2024-01-10T01:37:57;102571.81;;;-5.85;78.31
16690;BME280;8458;52.220;9.884;2024-01-10T01:40:24;102575.59;;;-5.88;78.03
16690;BME280;8458;52.220;9.884;2024-01-10T01:42:50;102572.03;;;-5.88;78.35
16690;BME280;8458;52.220;9.884;2024-01-10T01:45:17;102569.22;;;-5.87;78.46
16690;BME280;8458;52.220;9.884;2024-01-10T01:47:43;102568.13;;;-5.84;78.58
16690;BME280;8458;52.220;9.884;2024-01-10T01:50:10;102571.25;;;-5.78;78.63
16690;BME280;8458;52.220;9.884;2024-01-10T01:52:37;102560.13;;;-5.73;78.64
16690;BME280;8458;52.220;9.884;2024-01-10T01:55:06;102563.22;;;-5.66;78.09
16690;BME280;8458;52.220;9.884;2024-01-10T01:57:34;102567.31;;;-5.61;77.99
16690;BME280;8458;52.220;9.884;2024-01-10T02:00:01;102561.91;;;-5.61;78.13
16690;BME280;8458;52.220;9.884;2024-01-10T02:02:28;102562.88;;;-5.62;77.94
16690;BME280;8458;52.220;9.884;2024-01-10T02:04:56;102558.09;;;-5.58;77.48
16690;BME280;8458;52.220;9.884;2024-01-10T02:07:23;102557.47;;;-5.62;77.32
16690;BME280;8458;52.220;9.884;2024-01-10T02:09:50;102558.22;;;-5.60;77.19
16690;BME280;8458;52.220;9.884;2024-01-10T02:12:17;102561.91;;;-5.61;77.59
16690;BME280;8458;52.220;9.884;2024-01-10T02:14:44;102551.56;;;-5.67;77.61
16690;BME280;8458;52.220;9.884;2024-01-10T02:17:11;102562.38;;;-5.67;77.74
16690;BME280;8458;52.220;9.884;2024-01-10T02:19:37;102553.47;;;-5.69;77.25
16690;BME280;8458;52.220;9.884;2024-01-10T02:22:04;102546.38;;;-5.70;77.67
16690;BME280;8458;52.220;9.884;2024-01-10T02:24:30;102549.81;;;-5.68;77.32
16690;BME280;8458;52.220;9.884;2024-01-10T02:26:58;102542.66;;;-5.69;77.46
16690;BME280;8458;52.220;9.884;2024-01-10T02:29:24;102542.03;;;-5.72;77.11
16690;BME280;8458;52.220;9.884;2024-01-10T02:31:51;102539.34;;;-5.72;77.21
16690;BME280;8458;52.220;9.884;2024-01-10T02:34:17;102544.47;;;-5.81;77.54
16690;BME280;8458;52.220;9.884;2024-01-10T02:36:44;102534.72;;;-5.83;78.09
16690;BME280;8458;52.220;9.884;2024-01-10T02:39:10;102531.69;;;-5.79;77.66
16690;BME280;8458;52.220;9.884;2024-01-10T02:41:37;102527.56;;;-5.84;77.85
16690;BME280;8458;52.220;9.884;2024-01-10T02:44:05;102536.47;;;-5.82;78.26
16690;BME280;8458;52.220;9.884;2024-01-10T02:46:31;102531.91;;;-5.82;78.30
16690;BME280;8458;52.220;9.884;2024-01-10T02:48:57;102532.03;;;-5.83;77.80
16690;BME280;8458;52.220;9.884;2024-01-10T02:51:26;102534.50;;;-5.80;77.73
16690;BME280;8458;52.220;9.884;2024-01-10T02:53:53;102526.31;;;-5.91;77.92
16690;BME280;8458;52.220;9.884;2024-01-10T02:56:19;102522.06;;;-6.07;78.62
16690;BME280;8458;52.220;9.884;2024-01-10T02:58:46;102528.97;;;-6.16;78.46
16690;BME280;8458;52.220;9.884;2024-01-10T03:01:15;102514.06;;;-6.08;78.72
16690;BME280;8458;52.220;9.884;2024-01-10T03:03:41;102515.13;;;-6.11;79.02
16690;BME280;8458;52.220;9.884;2024-01-10T03:06:07;102519.13;;;-6.17;79.21
16690;BME280;8458;52.220;9.884;2024-01-10T03:08:34;102510.69;;;-6.12;79.08
16690;BME280;8458;52.220;9.884;2024-01-10T03:11:00;102518.59;;;-6.09;78.76
16690;BME280;8458;52.220;9.884;2024-01-10T03:13:27;102516.25;;;-6.26;78.80
16690;BME280;8458;52.220;9.884;2024-01-10T03:15:54;102519.47;;;-6.34;79.38
16690;BME280;8458;52.220;9.884;2024-01-10T03:18:23;102522.50;;;-6.39;79.47
16690;BME280;8458;52.220;9.884;2024-01-10T03:20:49;102516.47;;;-6.29;79.34
16690;BME280;8458;52.220;9.884;2024-01-10T03:23:16;102523.38;;;-6.25;79.97
16690;BME280;8458;52.220;9.884;2024-01-10T03:25:42;102521.19;;;-6.20;79.74
16690;BME280;8458;52.220;9.884;2024-01-10T03:28:09;102522.72;;;-6.16;79.77
16690;BME280;8458;52.220;9.884;2024-01-10T03:30:35;102520.31;;;-6.08;79.46
16690;BME280;8458;52.220;9.884;2024-01-10T03:33:02;102518.47;;;-6.07;79.20
16690;BME280;8458;52.220;9.884;2024-01-10T03:35:29;102517.00;;;-6.11;79.61
16690;BME280;8458;52.220;9.884;2024-01-10T03:37:56;102514.28;;;-6.11;79.73
16690;BME280;8458;52.220;9.884;2024-01-10T03:40:22;102527.69;;;-6.10;79.22
16690;BME280;8458;52.220;9.884;2024-01-10T03:42:49;102518.34;;;-6.06;78.96
16690;BME280;8458;52.220;9.884;2024-01-10T03:45:16;102518.34;;;-6.06;79.24
16690;BME280;8458;52.220;9.884;2024-01-10T03:47:44;102512.97;;;-6.06;79.38
16690;BME280;8458;52.220;9.884;2024-01-10T03:50:15;102521.63;;;-6.01;78.67
16690;BME280;8458;52.220;9.884;2024-01-10T03:52:43;102517.19;;;-6.02;78.31
16690;BME280;8458;52.220;9.884;2024-01-10T03:55:10;102516.66;;;-6.07;78.00
16690;BME280;8458;52.220;9.884;2024-01-10T03:57:37;102514.63;;;-6.16;78.41
16690;BME280;8458;52.220;9.884;2024-01-10T04:00:05;102507.50;;;-6.30;79.16
16690;BME280;8458;52.220;9.884;2024-01-10T04:02:32;102511.72;;;-6.39;79.04
16690;BME280;8458;52.220;9.884;2024-01-10T04:04:58;102519.06;;;-6.41;79.82
16690;BME280;8458;52.220;9.884;2024-01-10T04:07:27;102509.97;;;-6.40;79.58
16690;BME280;8458;52.220;9.884;2024-01-10T04:09:55;102506.53;;;-6.42;79.59
16690;BME280;8458;52.220;9.884;2024-01-10T04:12:21;102494.31;;;-6.47;80.24
16690;BME280;8458;52.220;9.884;2024-01-10T04:14:47;102506.13;;;-6.49;80.55
16690;BME280;8458;52.220;9.884;2024-01-10T04:17:14;102503.31;;;-6.47;80.37
16690;BME280;8458;52.220;9.884;2024-01-10T04:19:40;102506.75;;;-6.45;80.87
16690;BME280;8458;52.220;9.884;2024-01-10T04:22:07;102507.50;;;-6.43;80.74
16690;BME280;8458;52.220;9.884;2024-01-10T04:24:33;102512.88;;;-6.43;80.52
16690;BME280;8458;52.220;9.884;2024-01-10T04:27:01;102511.19;;;-6.44;80.85
16690;BME280;8458;52.220;9.884;2024-01-10T04:29:28;102517.75;;;-6.48;80.33
16690;BME280;8458;52.220;9.884;2024-01-10T04:31:55;102517.34;;;-6.55;80.86
16690;BME280;8458;52.220;9.884;2024-01-10T04:34:21;102512.78;;;-6.54;80.92
16690;BME280;8458;52.220;9.884;2024-01-10T04:36:50;102514.09;;;-6.47;80.82
16690;BME280;8458;52.220;9.884;2024-01-10T04:39:16;102516.25;;;-6.52;80.68
16690;BME280;8458;52.220;9.884;2024-01-10T04:41:43;102508.03;;;-6.51;80.36
16690;BME280;8458;52.220;9.884;2024-01-10T04:44:11;102510.09;;;-6.54;80.96
16690;BME280;8458;52.220;9.884;2024-01-10T04:46:37;102513.00;;;-6.57;81.21
16690;BME280;8458;52.220;9.884;2024-01-10T04:49:05;102505.44;;;-6.52;81.14
16690;BME280;8458;52.220;9.884;2024-01-10T04:51:31;102497.13;;;-6.49;81.39
16690;BME280;8458;52.220;9.884;2024-01-10T04:53:59;102506.75;;;-6.45;80.57
16690;BME280;8458;52.220;9.884;2024-01-10T04:56:25;102508.16;;;-6.39;80.93
16690;BME280;8458;52.220;9.884;2024-01-10T04:58:52;102497.34;;;-6.39;80.15
16690;BME280;8458;52.220;9.884;2024-01-10T05:01:20;102499.19;;;-6.40;80.54
16690;BME280;8458;52.220;9.884;2024-01-10T05:03:46;102495.50;;;-6.39;80.17
16690;BME280;8458;52.220;9.884;2024-01-10T05:06:13;102497.25;;;-6.38;79.90
16690;BME280;8458;52.220;9.884;2024-01-10T05:08:39;102496.25;;;-6.37;80.51
16690;BME280;8458;52.220;9.884;2024-01-10T05:11:06;102494.44;;;-6.36;80.17
16690;BME280;8458;52.220;9.884;2024-01-10T05:13:32;102480.38;;;-6.41;80.12
16690;BME280;8458;52.220;9.884;2024-01-10T05:15:58;102494.31;;;-6.35;80.36
16690;BME280;8458;52.220;9.884;2024-01-10T05:18:26;102492.25;;;-6.31;80.01
16690;BME280;8458;52.220;9.884;2024-01-10T05:20:53;102487.94;;;-6.34;79.53
16690;BME280;8458;52.220;9.884;2024-01-10T05:23:19;102487.72;;;-6.31;80.11
16690;BME280;8458;52.220;9.884;2024-01-10T05:25:46;102491.63;;;-6.35;79.38
16690;BME280;8458;52.220;9.884;2024-01-10T05:28:12;102491.63;;;-6.35;79.77
16690;BME280;8458;52.220;9.884;2024-01-10T05:30:38;102489.44;;;-6.29;79.47
16690;BME280;8458;52.220;9.884;2024-01-10T05:33:05;102489.00;;;-6.23;79.22
16690;BME280;8458;52.220;9.884;2024-01-10T05:35:33;102486.19;;;-6.22;79.14
16690;BME280;8458;52.220;9.884;2024-01-10T05:38:00;102479.63;;;-6.31;78.85
16690;BME280;8458;52.220;9.884;2024-01-10T05:40:28;102483.19;;;-6.30;79.22
16690;BME280;8458;52.220;9.884;2024-01-10T05:42:55;102487.19;;;-6.36;78.72
16690;BME280;8458;52.220;9.884;2024-01-10T05:45:21;102484.06;;;-6.29;78.87
16690;BME280;8458;52.220;9.884;2024-01-10T05:47:48;102479.84;;;-6.34;78.88
16690;BME280;8458;52.220;9.884;2024-01-10T05:50:14;102476.16;;;-6.33;78.72
16690;BME280;8458;52.220;9.884;2024-01-10T05:52:42;102474.31;;;-6.32;79.30
16690;BME280;8458;52.220;9.884;2024-01-10T05:55:09;102475.00;;;-6.28;78.73
16690;BME280;8458;52.220;9.884;2024-01-10T05:57:35;102477.56;;;-6.27;78.14
16690;BME280;8458;52.220;9.884;2024-01-10T06:00:02;102475.09;;;-6.30;78.32
16690;BME280;8458;52.220;9.884;2024-01-10T06:02:30;102469.81;;;-6.32;78.16
16690;BME280;8458;52.220;9.884;2024-01-10T06:04:57;102473.69;;;-6.36;78.18
16690;BME280;8458;52.220;9.884;2024-01-10T06:07:23;102480.06;;;-6.37;77.79
16690;BME280;8458;52.220;9.884;2024-01-10T06:09:51;102475.88;;;-6.41;78.48
16690;BME280;8458;52.220;9.884;2024-01-10T06:12:17;102472.38;;;-6.43;78.84
16690;BME280;8458;52.220;9.884;2024-01-10T06:14:44;102470.69;;;-6.44;78.49
16690;BME280;8458;52.220;9.884;2024-01-10T06:17:10;102470.47;;;-6.41;78.65
16690;BME280;8458;52.220;9.884;2024-01-10T06:19:36;102481.28;;;-6.41;78.75
16690;BME280;8458;52.220;9.884;2024-01-10T06:22:04;102482.13;;;-6.40;79.10
16690;BME280;8458;52.220;9.884;2024-01-10T06:24:31;102483.19;;;-6.43;79.07
16690;BME280;8458;52.220;9.884;2024-01-10T06:26:58;102485.38;;;-6.48;78.77
16690;BME280;8458;52.220;9.884;2024-01-10T06:29:25;102481.81;;;-6.49;79.38
16690;BME280;8458;52.220;9.884;2024-01-10T06:31:52;102469.28;;;-6.50;79.05
16690;BME280;8458;52.220;9.884;2024-01-10T06:34:18;102471.34;;;-6.53;79.11
16690;BME280;8458;52.220;9.884;2024-01-10T06:36:45;102470.13;;;-6.49;78.99
16690;BME280;8458;52.220;9.884;2024-01-10T06:39:11;102475.41;;;-6.47;79.45
16690;BME280;8458;52.220;9.884;2024-01-10T06:41:38;102470.78;;;-6.45;79.33
16690;BME280;8458;52.220;9.884;2024-01-10T06:44:06;102474.56;;;-6.48;79.12
16690;BME280;8458;52.220;9.884;2024-01-10T06:46:32;102478.22;;;-6.49;78.86
16690;BME280;8458;52.220;9.884;2024-01-10T06:48:59;102475.53;;;-6.49;78.57
16690;BME280;8458;52.220;9.884;2024-01-10T06:51:25;102475.44;;;-6.60;78.65
16690;BME280;8458;52.220;9.884;2024-01-10T06:53:53;102462.94;;;-6.61;78.71
16690;BME280;8458;52.220;9.884;2024-01-10T06:56:25;102472.97;;;-6.63;79.27
16690;BME280;8458;52.220;9.884;2024-01-10T06:58:52;102477.59;;;-6.65;79.00
16690;BME280;8458;52.220;9.884;2024-01-10T07:01:21;102482.47;;;-6.71;78.57
16690;BME280;8458;52.220;9.884;2024-01-10T07:03:48;102483.22;;;-6.69;79.37
16690;BME280;8458;52.220;9.884;2024-01-10T07:06:14;102482.25;;;-6.68;79.06
16690;BME280;8458;52.220;9.884;2024-01-10T07:08:41;102481.69;;;-6.73;79.42
16690;BME280;8458;52.220;9.884;2024-01-10T07:11:08;102482.81;;;-6.75;78.97
16690;BME280;8458;52.220;9.884;2024-01-10T07:13:34;102482.81;;;-6.75;79.54
16690;BME280;8458;52.220;9.884;2024-01-10T07:16:01;102477.28;;;-6.74;79.34
16690;BME280;8458;52.220;9.884;2024-01-10T07:18:29;102484.97;;;-6.68;79.54
16690;BME280;8458;52.220;9.884;2024-01-10T07:20:56;102474.91;;;-6.65;79.00
16690;BME280;8458;52.220;9.884;2024-01-10T07:23:23;102471.69;;;-6.71;79.74
16690;BME280;8458;52.220;9.884;2024-01-10T07:25:49;102476.84;;;-6.80;79.87
16690;BME280;8458;52.220;9.884;2024-01-10T07:28:16;102487.31;;;-6.76;79.83
16690;BME280;8458;52.220;9.884;2024-01-10T07:30:43;102485.06;;;-6.69;79.43
16690;BME280;8458;52.220;9.884;2024-01-10T07:33:09;102492.06;;;-6.79;79.36
16690;BME280;8458;52.220;9.884;2024-01-10T07:35:37;102492.59;;;-6.74;79.99
16690;BME280;8458;52.220;9.884;2024-01-10T07:38:04;102497.69;;;-6.82;80.01
16690;BME280;8458;52.220;9.884;2024-01-10T07:40:32;102507.63;;;-6.83;80.38
16690;BME280;8458;52.220;9.884;2024-01-10T07:42:59;102497.25;;;-6.89;80.57
16690;BME280;8458;52.220;9.884;2024-01-10T07:45:25;102499.69;;;-6.99;80.33
16690;BME280;8458;52.220;9.884;2024-01-10T07:47:52;102509.50;;;-7.11;80.82
16690;BME280;8458;52.220;9.884;2024-01-10T07:50:19;102507.66;;;-7.23;81.29
16690;BME280;8458;52.220;9.884;2024-01-10T07:52:46;102509.94;;;-7.17;81.26
16690;BME280;8458;52.220;9.884;2024-01-10T07:55:13;102511.22;;;-7.10;81.74
16690;BME280;8458;52.220;9.884;2024-01-10T07:57:39;102517.03;;;-7.16;81.09
16690;BME280;8458;52.220;9.884;2024-01-10T08:00:08;102514.13;;;-7.13;81.36
16690;BME280;8458;52.220;9.884;2024-01-10T08:02:35;102512.09;;;-7.09;81.37
16690;BME280;8458;52.220;9.884;2024-01-10T08:05:02;102514.28;;;-7.01;81.83
16690;BME280;8458;52.220;9.884;2024-01-10T08:07:30;102509.31;;;-7.08;81.32
16690;BME280;8458;52.220;9.884;2024-01-10T08:09:59;102511.69;;;-7.03;81.87
16690;BME280;8458;52.220;9.884;2024-01-10T08:12:25;102510.16;;;-6.94;81.76
16690;BME280;8458;52.220;9.884;2024-01-10T08:14:53;102502.06;;;-6.94;81.34
16690;BME280;8458;52.220;9.884;2024-01-10T08:17:19;102513.84;;;-6.95;81.89
16690;BME280;8458;52.220;9.884;2024-01-10T08:19:46;102517.09;;;-6.90;81.39
16690;BME280;8458;52.220;9.884;2024-01-10T08:22:12;102514.72;;;-6.82;81.94
16690;BME280;8458;52.220;9.884;2024-01-10T08:24:39;102511.06;;;-6.81;82.21
16690;BME280;8458;52.220;9.884;2024-01-10T08:27:07;102499.41;;;-6.81;81.83
16690;BME280;8458;52.220;9.884;2024-01-10T08:29:33;102487.53;;;-6.79;81.80
16690;BME280;8458;52.220;9.884;2024-01-10T08:32:00;102492.59;;;-6.74;81.64
16690;BME280;8458;52.220;9.884;2024-01-10T08:34:29;102493.38;;;-6.72;81.70
16690;BME280;8458;52.220;9.884;2024-01-10T08:36:55;102497.69;;;-6.70;81.34
16690;BME280;8458;52.220;9.884;2024-01-10T08:39:22;102500.28;;;-6.68;81.12
16690;BME280;8458;52.220;9.884;2024-01-10T08:41:51;102496.81;;;-6.70;81.08
16690;BME280;8458;52.220;9.884;2024-01-10T08:44:19;102498.03;;;-6.61;80.76
16690;BME280;8458;52.220;9.884;2024-01-10T08:46:45;102487.97;;;-6.59;80.76
16690;BME280;8458;52.220;9.884;2024-01-10T08:49:12;102495.31;;;-6.61;81.12
16690;BME280;8458;52.220;9.884;2024-01-10T08:51:38;102493.38;;;-6.59;80.00
16690;BME280;8458;52.220;9.884;2024-01-10T08:54:06;102502.00;;;-6.67;79.90
16690;BME280;8458;52.220;9.884;2024-01-10T08:56:32;102486.03;;;-6.70;80.76
16690;BME280;8458;52.220;9.884;2024-01-10T08:58:59;102490.78;;;-6.74;80.07
16690;BME280;8458;52.220;9.884;2024-01-10T09:01:27;102498.09;;;-6.76;80.18
16690;BME280;8458;52.220;9.884;2024-01-10T09:03:54;102497.25;;;-6.76;80.91
16690;BME280;8458;52.220;9.884;2024-01-10T09:06:20;102498.22;;;-6.77;80.39
16690;BME280;8458;52.220;9.884;2024-01-10T09:08:47;102490.78;;;-6.74;80.81
16690;BME280;8458;52.220;9.884;2024-01-10T09:11:13;102499.84;;;-6.75;80.44
16690;BME280;8458;52.220;9.884;2024-01-10T09:13:40;102492.06;;;-6.79;80.46
16690;BME280;8458;52.220;9.884;2024-01-10T09:16:06;102487.31;;;-6.76;80.58
16690;BME280;8458;52.220;9.884;2024-01-10T09:18:34;102491.00;;;-6.77;80.81
16690;BME280;8458;52.220;9.884;2024-01-10T09:21:01;102488.84;;;-6.72;80.43
16690;BME280;8458;52.220;9.884;2024-01-10T09:23:27;102495.31;;;-6.74;80.60
16690;BME280;8458;52.220;9.884;2024-01-10T09:25:54;102488.84;;;-6.72;80.43
16690;BME280;8458;52.220;9.884;2024-01-10T09:28:20;102486.66;;;-6.79;80.86
16690;BME280;8458;52.220;9.884;2024-01-10T09:30:47;102491.44;;;-6.70;81.01
16690;BME280;8458;52.220;9.884;2024-01-10T09:33:13;102489.38;;;-6.67;81.25
16690;BME280;8458;52.220;9.884;2024-01-10T09:35:41;102488.50;;;-6.67;80.64
16690;BME280;8458;52.220;9.884;2024-01-10T09:38:08;102502.66;;;-6.63;80.61
16690;BME280;8458;52.220;9.884;2024-01-10T09:40:34;102488.59;;;-6.56;81.47
16690;BME280;8458;52.220;9.884;2024-01-10T09:43:01;102491.19;;;-6.54;81.63
16690;BME280;8458;52.220;9.884;2024-01-10T09:45:28;102483.31;;;-6.44;81.22
16690;BME280;8458;52.220;9.884;2024-01-10T09:47:56;102495.28;;;-6.36;80.37
16690;BME280;8458;52.220;9.884;2024-01-10T09:50:23;102494.31;;;-6.35;79.60
16690;BME280;8458;52.220;9.884;2024-01-10T09:52:53;102492.16;;;-6.29;79.99
16690;BME280;8458;52.220;9.884;2024-01-10T09:55:21;102483.84;;;-6.26;79.48
16690;BME280;8458;52.220;9.884;2024-01-10T09:57:48;102491.72;;;-6.23;78.92
16690;BME280;8458;52.220;9.884;2024-01-10T10:00:15;102485.13;;;-6.19;79.04
16690;BME280;8458;52.220;9.884;2024-01-10T10:02:43;102485.44;;;-6.11;79.09
16690;BME280;8458;52.220;9.884;2024-01-10T10:05:13;102485.53;;;-6.13;79.99
16690;BME280;8458;52.220;9.884;2024-01-10T10:07:44;102482.06;;;-6.02;79.45
16690;BME280;8458;52.220;9.884;2024-01-10T10:10:12;102484.56;;;-5.87;79.31
16690;BME280;8458;52.220;9.884;2024-01-10T10:12:44;102476.00;;;-5.81;78.13
16690;BME280;8458;52.220;9.884;2024-01-10T10:15:12;102481.63;;;-5.84;77.90
16690;BME280;8458;52.220;9.884;2024-01-10T10:17:40;102477.06;;;-5.71;78.20
16690;BME280;8458;52.220;9.884;2024-01-10T10:20:12;102471.13;;;-5.76;77.88
16690;BME280;8458;52.220;9.884;2024-01-10T10:22:40;102470.00;;;-5.61;77.55
16690;BME280;8458;52.220;9.884;2024-01-10T10:25:07;102468.06;;;-5.47;77.10
16690;BME280;8458;52.220;9.884;2024-01-10T10:27:37;102465.38;;;-5.47;76.83
16690;BME280;8458;52.220;9.884;2024-01-10T10:30:04;102461.47;;;-5.43;76.96
16690;BME280;8458;52.220;9.884;2024-01-10T10:32:34;102461.84;;;-5.36;76.71
16690;BME280;8458;52.220;9.884;2024-01-10T10:35:01;102462.97;;;-5.39;76.57
16690;BME280;8458;52.220;9.884;2024-01-10T10:37:28;102456.84;;;-5.30;76.73
16690;BME280;8458;52.220;9.884;2024-01-10T10:39:54;102460.78;;;-5.23;76.48
16690;BME280;8458;52.220;9.884;2024-01-10T10:42:25;102462.41;;;-5.20;76.65
16690;BME280;8458;52.220;9.884;2024-01-10T10:44:57;102458.59;;;-5.17;76.37
16690;BME280;8458;52.220;9.884;2024-01-10T10:47:30;102449.63;;;-5.18;76.28
16690;BME280;8458;52.220;9.884;2024-01-10T10:50:03;102450.25;;;-5.14;76.61
16690;BME280;8458;52.220;9.884;2024-01-10T10:52:31;102448.06;;;-5.09;76.70
16690;BME280;8458;52.220;9.884;2024-01-10T10:54:59;102440.06;;;-5.11;76.58
16690;BME280;8458;52.220;9.884;2024-01-10T10:57:26;102446.69;;;-5.15;76.56
16690;BME280;8458;52.220;9.884;2024-01-10T10:59:53;102439.41;;;-5.14;76.69
16690;BME280;8458;52.220;9.884;2024-01-10T11:02:23;102445.84;;;-5.04;77.03
16690;BME280;8458;52.220;9.884;2024-01-10T11:04:50;102446.16;;;-4.84;76.78
16690;BME280;8458;52.220;9.884;2024-01-10T11:07:18;102441.44;;;-4.94;76.43
16690;BME280;8458;52.220;9.884;2024-01-10T11:09:46;102446.41;;;-4.76;76.15
16690;BME280;8458;52.220;9.884;2024-01-10T11:12:26;102443.19;;;-4.70;75.96
16690;BME280;8458;52.220;9.884;2024-01-10T11:15:07;102436.81;;;-4.58;75.67
16690;BME280;8458;52.220;9.884;2024-01-10T11:17:57;102438.06;;;-4.51;74.39
16690;BME280;8458;52.220;9.884;2024-01-10T11:20:48;102425.25;;;-4.48;74.06
16690;BME280;8458;52.220;9.884;2024-01-10T11:23:46;102430.66;;;-4.48;73.54
16690;BME280;8458;52.220;9.884;2024-01-10T11:26:15;102430.91;;;-4.52;74.00
16690;BME280;8458;52.220;9.884;2024-01-10T11:28:42;102432.00;;;-4.54;73.45
16690;BME280;8458;52.220;9.884;2024-01-10T11:31:08;102424.63;;;-4.52;73.83
16690;BME280;8458;52.220;9.884;2024-01-10T11:33:38;102425.00;;;-4.45;73.69
16690;BME280;8458;52.220;9.884;2024-01-10T11:36:13;102426.47;;;-4.41;73.40
16690;BME280;8458;52.220;9.884;2024-01-10T11:38:45;102425.34;;;-4.39;73.34
16690;BME280;8458;52.220;9.884;2024-01-10T11:41:20;102420.31;;;-4.43;73.00
16690;BME280;8458;52.220;9.884;2024-01-10T11:44:29;102420.81;;;-4.38;73.16
16690;BME280;8458;52.220;9.884;2024-01-10T11:46:57;102431.28;;;-4.34;73.50
16690;BME280;8458;52.220;9.884;2024-01-10T11:49:25;102420.06;;;-4.29;73.65
16690;BME280;8458;52.220;9.884;2024-01-10T11:51:54;102428.19;;;-4.29;73.63
16690;BME280;8458;52.220;9.884;2024-01-10T11:54:41;102426.94;;;-4.25;73.54
16690;BME280;8458;52.220;9.884;2024-01-10T11:57:10;102421.28;;;-4.22;72.93
16690;BME280;8458;52.220;9.884;2024-01-10T11:59:38;102426.69;;;-4.22;73.56
16690;BME280;8458;52.220;9.884;2024-01-10T12:02:04;102426.19;;;-4.16;73.38
16690;BME280;8458;52.220;9.884;2024-01-10T12:04:33;102433.47;;;-4.16;73.05
16690;BME280;8458;52.220;9.884;2024-01-10T12:07:02;102423.09;;;-4.11;72.92
16690;BME280;8458;52.220;9.884;2024-01-10T12:09:28;102423.09;;;-4.11;73.51
16690;BME280;8458;52.220;9.884;2024-01-10T12:11:55;102424.94;;;-4.00;73.55
16690;BME280;8458;52.220;9.884;2024-01-10T12:14:22;102422.31;;;-3.90;73.33
16690;BME280;8458;52.220;9.884;2024-01-10T12:16:50;102424.38;;;-3.83;73.18
16690;BME280;8458;52.220;9.884;2024-01-10T12:19:17;102417.72;;;-3.79;72.41
16690;BME280;8458;52.220;9.884;2024-01-10T12:21:45;102411.47;;;-3.79;71.82
16690;BME280;8458;52.220;9.884;2024-01-10T12:24:12;102413.41;;;-3.81;72.21
16690;BME280;8458;52.220;9.884;2024-01-10T12:26:43;102412.06;;;-3.75;72.05
16690;BME280;8458;52.220;9.884;2024-01-10T12:29:09;102412.66;;;-3.72;71.74
16690;BME280;8458;52.220;9.884;2024-01-10T12:31:38;102410.06;;;-3.73;71.13
16690;BME280;8458;52.220;9.884;2024-01-10T12:34:07;102408.38;;;-3.74;71.15
16690;BME280;8458;52.220;9.884;2024-01-10T12:36:33;102409.09;;;-3.72;70.90
16690;BME280;8458;52.220;9.884;2024-01-10T12:39:01;102406.13;;;-3.69;70.46
16690;BME280;8458;52.220;9.884;2024-01-10T12:41:28;102402.44;;;-3.68;70.30
16690;BME280;8458;52.220;9.884;2024-01-10T12:43:55;102404.25;;;-3.69;70.66
16690;BME280;8458;52.220;9.884;2024-01-10T12:46:21;102405.13;;;-3.68;70.68
16690;BME280;8458;52.220;9.884;2024-01-10T12:48:58;102406.13;;;-3.69;70.87
16690;BME280;8458;52.220;9.884;2024-01-10T12:51:26;102402.44;;;-3.68;70.37
16690;BME280;8458;52.220;9.884;2024-01-10T12:53:53;102401.41;;;-3.67;70.11
16690;BME280;8458;52.220;9.884;2024-01-10T12:56:21;102398.69;;;-3.67;70.43
16690;BME280;8458;52.220;9.884;2024-01-10T12:58:47;102395.59;;;-3.63;70.62
16690;BME280;8458;52.220;9.884;2024-01-10T13:01:14;102401.03;;;-3.63;71.05